sensor_id;sensor_type;location;lat;lon;timestamp;temperature;humidity
18002;DHT22;9126;48.160;17.130;2022-10-23T00:01:41;13.10;95.20
18002;DHT22;9126;48.160;17.130;2022-10-23T00:04:14;13.10;95.20
18002;DHT22;9126;48.160;17.130;2022-10-23T00:06:42;13.10;95.30
18002;DHT22;9126;48.160;17.130;2022-10-23T00:09:12;13.10;95.30
18002;DHT22;9126;48.160;17.130;2022-10-23T00:11:40;13.00;95.50
18002;DHT22;9126;48.160;17.130;2022-10-23T00:14:09;13.00;95.60
18002;DHT22;9126;48.160;17.130;2022-10-23T00:16:36;12.90;95.80
18002;DHT22;9126;48.160;17.130;2022-10-23T00:19:03;12.90;96.20
18002;DHT22;9126;48.160;17.130;2022-10-23T00:21:30;12.90;96.10
18002;DHT22;9126;48.160;17.130;2022-10-23T00:23:58;12.90;96.10
18002;DHT22;9126;48.160;17.130;2022-10-23T00:26:27;12.80;96.10
18002;DHT22;9126;48.160;17.130;2022-10-23T00:28:54;12.80;96.40
18002;DHT22;9126;48.160;17.130;2022-10-23T00:31:22;12.70;96.40
18002;DHT22;9126;48.160;17.130;2022-10-23T00:33:50;12.60;96.70
18002;DHT22;9126;48.160;17.130;2022-10-23T00:36:19;12.60;96.90
18002;DHT22;9126;48.160;17.130;2022-10-23T00:38:48;12.60;97.10
18002;DHT22;9126;48.160;17.130;2022-10-23T00:41:22;12.50;97.30
18002;DHT22;9126;48.160;17.130;2022-10-23T00:44:00;12.50;97.70
18002;DHT22;9126;48.160;17.130;2022-10-23T00:46:29;12.40;97.90
18002;DHT22;9126;48.160;17.130;2022-10-23T00:48:57;12.40;98.20
18002;DHT22;9126;48.160;17.130;2022-10-23T00:51:27;12.40;98.30
18002;DHT22;9126;48.160;17.130;2022-10-23T00:53:57;12.40;98.30
18002;DHT22;9126;48.160;17.130;2022-10-23T00:56:26;12.30;98.80
18002;DHT22;9126;48.160;17.130;2022-10-23T00:58:53;12.40;99.10
18002;DHT22;9126;48.160;17.130;2022-10-23T01:01:22;12.40;99.10
18002;DHT22;9126;48.160;17.130;2022-10-23T01:03:50;12.30;99.10
18002;DHT22;9126;48.160;17.130;2022-10-23T01:06:28;12.30;99.50
18002;DHT22;9126;48.160;17.130;2022-10-23T01:09:05;12.40;99.60
18002;DHT22;9126;48.160;17.130;2022-10-23T01:11:41;12.30;99.50
18002;DHT22;9126;48.160;17.130;2022-10-23T01:14:16;12.30;99.70
18002;DHT22;9126;48.160;17.130;2022-10-23T01:16:54;12.20;99.80
18002;DHT22;9126;48.160;17.130;2022-10-23T01:19:36;12.20;99.90
18002;DHT22;9126;48.160;17.130;2022-10-23T01:22:19;12.10;99.90
18002;DHT22;9126;48.160;17.130;2022-10-23T01:24:55;12.10;99.90
18002;DHT22;9126;48.160;17.130;2022-10-23T01:27:31;12.10;99.90
18002;DHT22;9126;48.160;17.130;2022-10-23T01:30:10;12.00;99.90
18002;DHT22;9126;48.160;17.130;2022-10-23T01:32:44;12.00;99.90
18002;DHT22;9126;48.160;17.130;2022-10-23T01:35:15;12.00;99.90
18002;DHT22;9126;48.160;17.130;2022-10-23T01:37:55;12.00;99.90
18002;DHT22;9126;48.160;17.130;2022-10-23T01:40:29;12.00;99.90
18002;DHT22;9126;48.160;17.130;2022-10-23T01:43:04;12.00;99.90
18002;DHT22;9126;48.160;17.130;2022-10-23T01:45:38;11.90;99.90
18002;DHT22;9126;48.160;17.130;2022-10-23T01:48:09;11.90;99.90
18002;DHT22;9126;48.160;17.130;2022-10-23T01:50:39;11.90;99.90
18002;DHT22;9126;48.160;17.130;2022-10-23T01:53:07;11.90;99.90
18002;DHT22;9126;48.160;17.130;2022-10-23T01:55:35;11.80;99.90
18002;DHT22;9126;48.160;17.130;2022-10-23T01:58:05;11.80;99.90
18002;DHT22;9126;48.160;17.130;2022-10-23T02:00:33;11.80;99.90
18002;DHT22;9126;48.160;17.130;2022-10-23T02:03:02;11.70;99.90
18002;DHT22;9126;48.160;17.130;2022-10-23T02:05:30;11.70;99.90
18002;DHT22;9126;48.160;17.130;2022-10-23T02:07:57;11.70;99.90
18002;DHT22;9126;48.160;17.130;2022-10-23T02:10:31;11.70;99.90
18002;DHT22;9126;48.160;17.130;2022-10-23T02:13:04;11.70;99.90
18002;DHT22;9126;48.160;17.130;2022-10-23T02:15:35;11.60;99.90
18002;DHT22;9126;48.160;17.130;2022-10-23T02:18:06;11.60;99.90
18002;DHT22;9126;48.160;17.130;2022-10-23T02:20:38;11.60;99.90
18002;DHT22;9126;48.160;17.130;2022-10-23T02:23:17;11.70;99.90
18002;DHT22;9126;48.160;17.130;2022-10-23T02:25:51;11.70;99.90
18002;DHT22;9126;48.160;17.130;2022-10-23T02:28:24;11.60;99.90
18002;DHT22;9126;48.160;17.130;2022-10-23T02:30:53;11.50;99.90
18002;DHT22;9126;48.160;17.130;2022-10-23T02:33:22;11.40;99.90
18002;DHT22;9126;48.160;17.130;2022-10-23T02:35:52;11.40;99.90
18002;DHT22;9126;48.160;17.130;2022-10-23T02:38:28;11.50;99.90
18002;DHT22;9126;48.160;17.130;2022-10-23T02:40:58;11.40;99.90
18002;DHT22;9126;48.160;17.130;2022-10-23T02:43:34;11.50;99.90
18002;DHT22;9126;48.160;17.130;2022-10-23T02:46:09;11.40;99.90
18002;DHT22;9126;48.160;17.130;2022-10-23T02:48:42;11.40;99.90
18002;DHT22;9126;48.160;17.130;2022-10-23T02:51:13;11.30;99.90
18002;DHT22;9126;48.160;17.130;2022-10-23T02:53:51;11.30;99.90
18002;DHT22;9126;48.160;17.130;2022-10-23T02:56:23;11.20;99.90
18002;DHT22;9126;48.160;17.130;2022-10-23T02:58:59;11.20;99.90
18002;DHT22;9126;48.160;17.130;2022-10-23T03:01:37;11.10;99.90
18002;DHT22;9126;48.160;17.130;2022-10-23T03:04:07;11.10;99.90
18002;DHT22;9126;48.160;17.130;2022-10-23T03:06:35;11.10;99.90
18002;DHT22;9126;48.160;17.130;2022-10-23T03:09:04;11.00;99.90
18002;DHT22;9126;48.160;17.130;2022-10-23T03:11:31;11.00;99.90
18002;DHT22;9126;48.160;17.130;2022-10-23T03:14:00;11.00;99.90
18002;DHT22;9126;48.160;17.130;2022-10-23T03:16:27;10.90;99.90
18002;DHT22;9126;48.160;17.130;2022-10-23T03:18:54;10.80;99.90
18002;DHT22;9126;48.160;17.130;2022-10-23T03:21:21;10.70;99.90
18002;DHT22;9126;48.160;17.130;2022-10-23T03:23:48;10.70;99.90
18002;DHT22;9126;48.160;17.130;2022-10-23T03:26:15;10.60;99.90
18002;DHT22;9126;48.160;17.130;2022-10-23T03:28:42;10.60;99.90
18002;DHT22;9126;48.160;17.130;2022-10-23T03:31:11;10.70;99.90
18002;DHT22;9126;48.160;17.130;2022-10-23T03:33:38;10.60;99.90
18002;DHT22;9126;48.160;17.130;2022-10-23T03:36:05;10.60;99.90
18002;DHT22;9126;48.160;17.130;2022-10-23T03:38:32;10.60;99.90
18002;DHT22;9126;48.160;17.130;2022-10-23T03:40:59;10.60;99.90
18002;DHT22;9126;48.160;17.130;2022-10-23T03:43:26;10.50;99.90
18002;DHT22;9126;48.160;17.130;2022-10-23T03:45:55;10.60;99.90
18002;DHT22;9126;48.160;17.130;2022-10-23T03:48:23;10.60;99.90
18002;DHT22;9126;48.160;17.130;2022-10-23T03:50:51;10.60;99.90
18002;DHT22;9126;48.160;17.130;2022-10-23T03:53:18;10.60;99.90
18002;DHT22;9126;48.160;17.130;2022-10-23T03:55:45;10.60;99.90
18002;DHT22;9126;48.160;17.130;2022-10-23T03:58:12;10.60;99.90
18002;DHT22;9126;48.160;17.130;2022-10-23T04:00:38;10.50;99.90
18002;DHT22;9126;48.160;17.130;2022-10-23T04:03:06;10.30;99.90
18002;DHT22;9126;48.160;17.130;2022-10-23T04:05:37;10.30;99.90
18002;DHT22;9126;48.160;17.130;2022-10-23T04:08:06;10.30;99.90
18002;DHT22;9126;48.160;17.130;2022-10-23T04:10:33;10.40;99.90
18002;DHT22;9126;48.160;17.130;2022-10-23T04:13:00;10.60;99.90
18002;DHT22;9126;48.160;17.130;2022-10-23T04:15:27;10.80;99.90
18002;DHT22;9126;48.160;17.130;2022-10-23T04:17:54;10.90;99.90
18002;DHT22;9126;48.160;17.130;2022-10-23T04:20:21;11.00;99.90
18002;DHT22;9126;48.160;17.130;2022-10-23T04:22:49;11.10;99.90
18002;DHT22;9126;48.160;17.130;2022-10-23T04:25:16;11.10;99.90
18002;DHT22;9126;48.160;17.130;2022-10-23T04:27:43;11.20;99.90
18002;DHT22;9126;48.160;17.130;2022-10-23T04:30:11;11.30;99.90
18002;DHT22;9126;48.160;17.130;2022-10-23T04:32:38;11.30;99.90
18002;DHT22;9126;48.160;17.130;2022-10-23T04:35:06;11.10;99.90
18002;DHT22;9126;48.160;17.130;2022-10-23T04:37:33;10.90;99.90
18002;DHT22;9126;48.160;17.130;2022-10-23T04:40:22;10.70;99.90
18002;DHT22;9126;48.160;17.130;2022-10-23T04:42:49;10.80;99.90
18002;DHT22;9126;48.160;17.130;2022-10-23T04:45:16;10.90;99.90
18002;DHT22;9126;48.160;17.130;2022-10-23T04:47:43;11.00;99.90
18002;DHT22;9126;48.160;17.130;2022-10-23T04:50:10;10.90;99.90
18002;DHT22;9126;48.160;17.130;2022-10-23T04:52:37;10.80;99.90
18002;DHT22;9126;48.160;17.130;2022-10-23T04:55:06;10.80;99.90
18002;DHT22;9126;48.160;17.130;2022-10-23T04:57:35;10.80;99.90
18002;DHT22;9126;48.160;17.130;2022-10-23T05:00:03;10.90;99.90
18002;DHT22;9126;48.160;17.130;2022-10-23T05:02:32;10.80;99.90
18002;DHT22;9126;48.160;17.130;2022-10-23T05:04:59;10.60;99.90
18002;DHT22;9126;48.160;17.130;2022-10-23T05:07:26;10.60;99.90
18002;DHT22;9126;48.160;17.130;2022-10-23T05:09:53;10.60;99.90
18002;DHT22;9126;48.160;17.130;2022-10-23T05:12:21;10.60;99.90
18002;DHT22;9126;48.160;17.130;2022-10-23T05:14:52;10.50;99.90
18002;DHT22;9126;48.160;17.130;2022-10-23T05:17:24;10.60;99.90
18002;DHT22;9126;48.160;17.130;2022-10-23T05:19:53;10.80;99.90
18002;DHT22;9126;48.160;17.130;2022-10-23T05:22:22;10.90;99.90
18002;DHT22;9126;48.160;17.130;2022-10-23T05:24:51;10.90;99.90
18002;DHT22;9126;48.160;17.130;2022-10-23T05:27:18;10.90;99.90
18002;DHT22;9126;48.160;17.130;2022-10-23T05:29:45;10.90;99.90
18002;DHT22;9126;48.160;17.130;2022-10-23T05:32:15;10.90;99.90
18002;DHT22;9126;48.160;17.130;2022-10-23T05:34:42;11.00;99.90
18002;DHT22;9126;48.160;17.130;2022-10-23T05:37:11;11.10;99.90
18002;DHT22;9126;48.160;17.130;2022-10-23T05:39:39;11.20;99.90
18002;DHT22;9126;48.160;17.130;2022-10-23T05:42:06;11.20;99.90
18002;DHT22;9126;48.160;17.130;2022-10-23T05:44:33;11.20;99.90
18002;DHT22;9126;48.160;17.130;2022-10-23T05:47:01;11.20;99.90
18002;DHT22;9126;48.160;17.130;2022-10-23T05:49:29;11.30;99.90
18002;DHT22;9126;48.160;17.130;2022-10-23T05:51:56;11.40;99.90
18002;DHT22;9126;48.160;17.130;2022-10-23T05:54:23;11.40;99.90
18002;DHT22;9126;48.160;17.130;2022-10-23T05:56:50;11.50;99.90
18002;DHT22;9126;48.160;17.130;2022-10-23T05:59:17;11.50;99.90
18002;DHT22;9126;48.160;17.130;2022-10-23T06:01:44;11.60;99.90
18002;DHT22;9126;48.160;17.130;2022-10-23T06:04:11;11.60;99.90
18002;DHT22;9126;48.160;17.130;2022-10-23T06:06:40;11.60;99.90
18002;DHT22;9126;48.160;17.130;2022-10-23T06:09:07;11.60;99.90
18002;DHT22;9126;48.160;17.130;2022-10-23T06:11:35;11.70;99.90
18002;DHT22;9126;48.160;17.130;2022-10-23T06:14:02;11.70;99.90
18002;DHT22;9126;48.160;17.130;2022-10-23T06:16:29;11.70;99.90
18002;DHT22;9126;48.160;17.130;2022-10-23T06:18:56;11.70;99.90
18002;DHT22;9126;48.160;17.130;2022-10-23T06:21:23;11.70;99.90
18002;DHT22;9126;48.160;17.130;2022-10-23T06:23:52;11.70;99.90
18002;DHT22;9126;48.160;17.130;2022-10-23T06:26:20;11.70;99.90
18002;DHT22;9126;48.160;17.130;2022-10-23T06:28:47;11.80;99.90
18002;DHT22;9126;48.160;17.130;2022-10-23T06:31:15;11.90;99.90
18002;DHT22;9126;48.160;17.130;2022-10-23T06:33:44;12.00;99.90
18002;DHT22;9126;48.160;17.130;2022-10-23T06:36:11;12.00;99.90
18002;DHT22;9126;48.160;17.130;2022-10-23T06:38:38;12.00;99.90
18002;DHT22;9126;48.160;17.130;2022-10-23T06:41:11;12.10;99.90
18002;DHT22;9126;48.160;17.130;2022-10-23T06:43:38;12.10;99.90
18002;DHT22;9126;48.160;17.130;2022-10-23T06:46:06;12.20;99.90
18002;DHT22;9126;48.160;17.130;2022-10-23T06:48:33;12.30;99.90
18002;DHT22;9126;48.160;17.130;2022-10-23T06:51:04;12.30;99.90
18002;DHT22;9126;48.160;17.130;2022-10-23T06:53:32;12.30;99.90
18002;DHT22;9126;48.160;17.130;2022-10-23T06:56:00;12.20;99.90
18002;DHT22;9126;48.160;17.130;2022-10-23T06:58:29;12.30;99.90
18002;DHT22;9126;48.160;17.130;2022-10-23T07:00:59;12.20;99.90
18002;DHT22;9126;48.160;17.130;2022-10-23T07:03:26;12.30;99.90
18002;DHT22;9126;48.160;17.130;2022-10-23T07:05:53;12.30;99.90
18002;DHT22;9126;48.160;17.130;2022-10-23T07:08:20;12.30;99.90
18002;DHT22;9126;48.160;17.130;2022-10-23T07:10:48;12.40;99.90
18002;DHT22;9126;48.160;17.130;2022-10-23T07:13:15;12.20;99.90
18002;DHT22;9126;48.160;17.130;2022-10-23T07:15:44;12.20;99.90
18002;DHT22;9126;48.160;17.130;2022-10-23T07:18:11;12.10;99.90
18002;DHT22;9126;48.160;17.130;2022-10-23T07:20:39;12.20;99.90
18002;DHT22;9126;48.160;17.130;2022-10-23T07:23:07;12.30;99.90
18002;DHT22;9126;48.160;17.130;2022-10-23T07:25:34;12.40;99.90
18002;DHT22;9126;48.160;17.130;2022-10-23T07:28:03;12.60;99.90
18002;DHT22;9126;48.160;17.130;2022-10-23T07:30:33;12.70;99.90
18002;DHT22;9126;48.160;17.130;2022-10-23T07:33:01;12.80;99.90
18002;DHT22;9126;48.160;17.130;2022-10-23T07:35:28;12.80;99.90
18002;DHT22;9126;48.160;17.130;2022-10-23T07:37:58;13.00;99.90
18002;DHT22;9126;48.160;17.130;2022-10-23T07:40:26;13.10;99.40
18002;DHT22;9126;48.160;17.130;2022-10-23T07:42:52;13.10;99.20
18002;DHT22;9126;48.160;17.130;2022-10-23T07:45:19;13.10;98.30
18002;DHT22;9126;48.160;17.130;2022-10-23T07:47:49;13.20;98.40
18002;DHT22;9126;48.160;17.130;2022-10-23T07:50:18;13.30;98.10
18002;DHT22;9126;48.160;17.130;2022-10-23T07:52:45;13.50;97.60
18002;DHT22;9126;48.160;17.130;2022-10-23T07:55:13;13.60;97.10
18002;DHT22;9126;48.160;17.130;2022-10-23T07:57:40;13.70;96.60
18002;DHT22;9126;48.160;17.130;2022-10-23T08:00:08;13.80;96.70
18002;DHT22;9126;48.160;17.130;2022-10-23T08:02:35;13.70;95.20
18002;DHT22;9126;48.160;17.130;2022-10-23T08:05:06;13.60;95.90
18002;DHT22;9126;48.160;17.130;2022-10-23T08:07:34;13.70;96.10
18002;DHT22;9126;48.160;17.130;2022-10-23T08:10:01;13.80;96.10
18002;DHT22;9126;48.160;17.130;2022-10-23T08:12:31;13.90;95.70
18002;DHT22;9126;48.160;17.130;2022-10-23T08:14:58;14.00;95.80
18002;DHT22;9126;48.160;17.130;2022-10-23T08:17:25;14.20;95.70
18002;DHT22;9126;48.160;17.130;2022-10-23T08:19:52;14.30;95.10
18002;DHT22;9126;48.160;17.130;2022-10-23T08:22:19;14.50;94.70
18002;DHT22;9126;48.160;17.130;2022-10-23T08:24:47;14.50;94.20
18002;DHT22;9126;48.160;17.130;2022-10-23T08:27:14;14.50;93.90
18002;DHT22;9126;48.160;17.130;2022-10-23T08:29:41;14.50;94.00
18002;DHT22;9126;48.160;17.130;2022-10-23T08:32:09;14.50;93.40
18002;DHT22;9126;48.160;17.130;2022-10-23T08:34:36;14.20;93.70
18002;DHT22;9126;48.160;17.130;2022-10-23T08:37:03;14.30;94.40
18002;DHT22;9126;48.160;17.130;2022-10-23T08:39:30;14.40;94.20
18002;DHT22;9126;48.160;17.130;2022-10-23T08:41:58;14.50;93.70
18002;DHT22;9126;48.160;17.130;2022-10-23T08:44:29;14.50;93.70
18002;DHT22;9126;48.160;17.130;2022-10-23T08:47:01;14.40;93.50
18002;DHT22;9126;48.160;17.130;2022-10-23T08:49:49;14.40;94.00
18002;DHT22;9126;48.160;17.130;2022-10-23T08:52:22;14.60;93.90
18002;DHT22;9126;48.160;17.130;2022-10-23T08:54:59;14.50;93.80
18002;DHT22;9126;48.160;17.130;2022-10-23T08:57:32;14.50;93.50
18002;DHT22;9126;48.160;17.130;2022-10-23T09:00:05;14.40;94.00
18002;DHT22;9126;48.160;17.130;2022-10-23T09:02:36;14.70;94.10
18002;DHT22;9126;48.160;17.130;2022-10-23T09:05:12;14.70;93.90
18002;DHT22;9126;48.160;17.130;2022-10-23T09:07:49;14.80;93.50
18002;DHT22;9126;48.160;17.130;2022-10-23T09:10:33;14.70;93.00
18002;DHT22;9126;48.160;17.130;2022-10-23T09:13:20;14.30;92.60
18002;DHT22;9126;48.160;17.130;2022-10-23T09:15:54;14.00;93.80
18002;DHT22;9126;48.160;17.130;2022-10-23T09:18:25;14.10;94.40
18002;DHT22;9126;48.160;17.130;2022-10-23T09:20:52;14.20;94.20
18002;DHT22;9126;48.160;17.130;2022-10-23T09:23:21;14.30;94.50
18002;DHT22;9126;48.160;17.130;2022-10-23T09:25:50;14.50;94.50
18002;DHT22;9126;48.160;17.130;2022-10-23T09:28:25;14.70;93.50
18002;DHT22;9126;48.160;17.130;2022-10-23T09:30:53;14.70;93.20
18002;DHT22;9126;48.160;17.130;2022-10-23T09:33:32;14.90;93.00
18002;DHT22;9126;48.160;17.130;2022-10-23T09:36:03;14.90;92.20
18002;DHT22;9126;48.160;17.130;2022-10-23T09:38:33;14.90;91.70
18002;DHT22;9126;48.160;17.130;2022-10-23T09:41:05;14.70;91.60
18002;DHT22;9126;48.160;17.130;2022-10-23T09:43:34;14.50;91.90
18002;DHT22;9126;48.160;17.130;2022-10-23T09:46:02;14.40;91.80
18002;DHT22;9126;48.160;17.130;2022-10-23T09:48:31;14.40;92.20
18002;DHT22;9126;48.160;17.130;2022-10-23T09:50:59;14.30;92.20
18002;DHT22;9126;48.160;17.130;2022-10-23T09:53:33;14.40;92.20
18002;DHT22;9126;48.160;17.130;2022-10-23T09:56:02;14.40;91.90
18002;DHT22;9126;48.160;17.130;2022-10-23T09:58:34;14.30;91.60
18002;DHT22;9126;48.160;17.130;2022-10-23T10:01:02;14.10;92.00
18002;DHT22;9126;48.160;17.130;2022-10-23T10:03:30;14.20;92.60
18002;DHT22;9126;48.160;17.130;2022-10-23T10:05:59;14.40;92.70
18002;DHT22;9126;48.160;17.130;2022-10-23T10:08:35;14.50;92.00
18002;DHT22;9126;48.160;17.130;2022-10-23T10:11:11;14.30;91.80
18002;DHT22;9126;48.160;17.130;2022-10-23T10:13:55;14.30;92.20
18002;DHT22;9126;48.160;17.130;2022-10-23T10:16:32;14.60;92.10
18002;DHT22;9126;48.160;17.130;2022-10-23T10:19:13;14.80;91.70
18002;DHT22;9126;48.160;17.130;2022-10-23T10:21:47;14.90;90.80
18002;DHT22;9126;48.160;17.130;2022-10-23T10:24:19;14.80;91.20
18002;DHT22;9126;48.160;17.130;2022-10-23T10:26:53;14.80;90.90
18002;DHT22;9126;48.160;17.130;2022-10-23T10:29:31;14.80;90.50
18002;DHT22;9126;48.160;17.130;2022-10-23T10:32:12;14.40;90.40
18002;DHT22;9126;48.160;17.130;2022-10-23T10:34:46;14.00;91.10
18002;DHT22;9126;48.160;17.130;2022-10-23T10:37:24;14.10;92.00
18002;DHT22;9126;48.160;17.130;2022-10-23T10:39:59;14.00;91.80
18002;DHT22;9126;48.160;17.130;2022-10-23T10:42:42;14.00;92.30
18002;DHT22;9126;48.160;17.130;2022-10-23T10:45:23;14.20;92.50
18002;DHT22;9126;48.160;17.130;2022-10-23T10:48:20;14.30;91.90
18002;DHT22;9126;48.160;17.130;2022-10-23T10:50:52;14.50;92.30
18002;DHT22;9126;48.160;17.130;2022-10-23T10:53:25;15.00;91.40
18002;DHT22;9126;48.160;17.130;2022-10-23T10:55:57;15.10;91.00
18002;DHT22;9126;48.160;17.130;2022-10-23T10:58:38;15.20;90.20
18002;DHT22;9126;48.160;17.130;2022-10-23T11:01:23;15.10;90.00
18002;DHT22;9126;48.160;17.130;2022-10-23T11:03:56;15.10;89.20
18002;DHT22;9126;48.160;17.130;2022-10-23T11:06:29;15.10;90.20
18002;DHT22;9126;48.160;17.130;2022-10-23T11:09:01;15.20;89.10
18002;DHT22;9126;48.160;17.130;2022-10-23T11:11:34;15.40;88.70
18002;DHT22;9126;48.160;17.130;2022-10-23T11:14:02;15.30;87.50
18002;DHT22;9126;48.160;17.130;2022-10-23T11:16:33;15.30;87.70
18002;DHT22;9126;48.160;17.130;2022-10-23T11:19:09;15.40;87.20
18002;DHT22;9126;48.160;17.130;2022-10-23T11:21:43;15.10;86.40
18002;DHT22;9126;48.160;17.130;2022-10-23T11:27:33;14.90;88.40
18002;DHT22;9126;48.160;17.130;2022-10-23T11:30:14;14.90;87.90
18002;DHT22;9126;48.160;17.130;2022-10-23T11:35:53;15.00;87.80
18002;DHT22;9126;48.160;17.130;2022-10-23T11:38:25;14.80;86.50
18002;DHT22;9126;48.160;17.130;2022-10-23T11:40:58;14.50;87.80
18002;DHT22;9126;48.160;17.130;2022-10-23T11:43:28;14.60;88.80
18002;DHT22;9126;48.160;17.130;2022-10-23T11:45:56;14.70;89.00
18002;DHT22;9126;48.160;17.130;2022-10-23T11:48:34;14.90;88.80
18002;DHT22;9126;48.160;17.130;2022-10-23T11:51:04;15.00;88.50
18002;DHT22;9126;48.160;17.130;2022-10-23T11:53:38;15.10;87.20
18002;DHT22;9126;48.160;17.130;2022-10-23T11:56:25;14.80;87.30
18002;DHT22;9126;48.160;17.130;2022-10-23T11:58:57;14.80;88.80
18002;DHT22;9126;48.160;17.130;2022-10-23T12:01:28;14.70;88.10
18002;DHT22;9126;48.160;17.130;2022-10-23T12:03:59;14.60;88.60
18002;DHT22;9126;48.160;17.130;2022-10-23T12:06:31;14.70;88.50
18002;DHT22;9126;48.160;17.130;2022-10-23T12:09:03;14.70;89.10
18002;DHT22;9126;48.160;17.130;2022-10-23T12:11:45;14.90;88.60
18002;DHT22;9126;48.160;17.130;2022-10-23T12:14:28;14.90;88.20
18002;DHT22;9126;48.160;17.130;2022-10-23T12:16:56;14.90;88.70
18002;DHT22;9126;48.160;17.130;2022-10-23T12:19:25;15.00;88.50
18002;DHT22;9126;48.160;17.130;2022-10-23T12:21:57;15.10;88.10
18002;DHT22;9126;48.160;17.130;2022-10-23T12:24:50;15.20;88.20
18002;DHT22;9126;48.160;17.130;2022-10-23T12:27:28;15.20;86.90
18002;DHT22;9126;48.160;17.130;2022-10-23T12:30:11;15.00;87.10
18002;DHT22;9126;48.160;17.130;2022-10-23T12:32:56;14.90;87.80
18002;DHT22;9126;48.160;17.130;2022-10-23T12:38:19;14.80;87.30
18002;DHT22;9126;48.160;17.130;2022-10-23T12:40:51;14.50;88.20
18002;DHT22;9126;48.160;17.130;2022-10-23T12:43:25;14.50;89.30
18002;DHT22;9126;48.160;17.130;2022-10-23T12:45:53;14.70;89.50
18002;DHT22;9126;48.160;17.130;2022-10-23T12:48:22;14.70;88.60
18002;DHT22;9126;48.160;17.130;2022-10-23T12:50:51;14.60;88.90
18002;DHT22;9126;48.160;17.130;2022-10-23T12:53:22;14.40;89.90
18002;DHT22;9126;48.160;17.130;2022-10-23T12:55:53;14.50;90.20
18002;DHT22;9126;48.160;17.130;2022-10-23T12:58:23;14.70;90.20
18002;DHT22;9126;48.160;17.130;2022-10-23T13:00:55;15.00;89.70
18002;DHT22;9126;48.160;17.130;2022-10-23T13:03:24;15.00;88.20
18002;DHT22;9126;48.160;17.130;2022-10-23T13:05:55;14.90;88.40
18002;DHT22;9126;48.160;17.130;2022-10-23T13:08:31;14.80;88.90
18002;DHT22;9126;48.160;17.130;2022-10-23T13:10:59;14.80;89.20
18002;DHT22;9126;48.160;17.130;2022-10-23T13:13:27;14.70;89.00
18002;DHT22;9126;48.160;17.130;2022-10-23T13:15:54;14.70;89.10
18002;DHT22;9126;48.160;17.130;2022-10-23T13:18:23;14.70;88.90
18002;DHT22;9126;48.160;17.130;2022-10-23T13:20:57;14.70;89.70
18002;DHT22;9126;48.160;17.130;2022-10-23T13:23:31;14.70;89.80
18002;DHT22;9126;48.160;17.130;2022-10-23T13:26:00;14.80;90.00
18002;DHT22;9126;48.160;17.130;2022-10-23T13:28:28;14.90;89.80
18002;DHT22;9126;48.160;17.130;2022-10-23T13:31:30;15.00;89.90
18002;DHT22;9126;48.160;17.130;2022-10-23T13:34:23;15.10;89.20
18002;DHT22;9126;48.160;17.130;2022-10-23T13:37:02;15.00;89.00
18002;DHT22;9126;48.160;17.130;2022-10-23T13:39:32;15.00;88.70
18002;DHT22;9126;48.160;17.130;2022-10-23T13:42:08;14.90;89.00
18002;DHT22;9126;48.160;17.130;2022-10-23T13:44:36;14.80;89.60
18002;DHT22;9126;48.160;17.130;2022-10-23T13:47:03;14.80;90.00
18002;DHT22;9126;48.160;17.130;2022-10-23T13:49:31;14.90;90.00
18002;DHT22;9126;48.160;17.130;2022-10-23T13:51:58;15.00;89.80
18002;DHT22;9126;48.160;17.130;2022-10-23T13:54:26;14.80;89.40
18002;DHT22;9126;48.160;17.130;2022-10-23T13:56:55;14.40;89.70
18002;DHT22;9126;48.160;17.130;2022-10-23T13:59:22;14.20;90.80
18002;DHT22;9126;48.160;17.130;2022-10-23T14:01:50;14.20;91.40
18002;DHT22;9126;48.160;17.130;2022-10-23T14:04:17;14.30;91.50
18002;DHT22;9126;48.160;17.130;2022-10-23T14:06:45;14.50;91.70
18002;DHT22;9126;48.160;17.130;2022-10-23T14:09:13;14.60;91.60
18002;DHT22;9126;48.160;17.130;2022-10-23T14:11:41;14.70;91.40
18002;DHT22;9126;48.160;17.130;2022-10-23T14:14:10;14.90;91.20
18002;DHT22;9126;48.160;17.130;2022-10-23T14:16:37;15.00;91.20
18002;DHT22;9126;48.160;17.130;2022-10-23T14:19:04;15.20;91.00
18002;DHT22;9126;48.160;17.130;2022-10-23T14:21:32;15.40;90.60
18002;DHT22;9126;48.160;17.130;2022-10-23T14:23:59;15.50;90.30
18002;DHT22;9126;48.160;17.130;2022-10-23T14:26:26;15.60;90.10
18002;DHT22;9126;48.160;17.130;2022-10-23T14:28:56;15.70;89.90
18002;DHT22;9126;48.160;17.130;2022-10-23T14:31:24;15.60;88.90
18002;DHT22;9126;48.160;17.130;2022-10-23T14:33:53;15.50;89.20
18002;DHT22;9126;48.160;17.130;2022-10-23T14:36:21;15.30;89.70
18002;DHT22;9126;48.160;17.130;2022-10-23T14:38:51;15.20;90.10
18002;DHT22;9126;48.160;17.130;2022-10-23T14:41:20;15.20;90.30
18002;DHT22;9126;48.160;17.130;2022-10-23T14:43:47;15.20;90.60
18002;DHT22;9126;48.160;17.130;2022-10-23T14:46:15;15.20;90.30
18002;DHT22;9126;48.160;17.130;2022-10-23T14:48:44;14.90;90.60
18002;DHT22;9126;48.160;17.130;2022-10-23T14:51:19;14.80;91.20
18002;DHT22;9126;48.160;17.130;2022-10-23T14:53:47;14.80;91.50
18002;DHT22;9126;48.160;17.130;2022-10-23T14:56:14;14.80;91.50
18002;DHT22;9126;48.160;17.130;2022-10-23T14:58:41;14.90;91.70
18002;DHT22;9126;48.160;17.130;2022-10-23T15:01:08;14.80;91.60
18002;DHT22;9126;48.160;17.130;2022-10-23T15:03:36;14.80;91.90
18002;DHT22;9126;48.160;17.130;2022-10-23T15:06:06;14.80;92.40
18002;DHT22;9126;48.160;17.130;2022-10-23T15:08:33;14.90;92.40
18002;DHT22;9126;48.160;17.130;2022-10-23T15:11:01;15.00;92.40
18002;DHT22;9126;48.160;17.130;2022-10-23T15:13:28;15.00;92.30
18002;DHT22;9126;48.160;17.130;2022-10-23T15:16:06;15.10;92.40
18002;DHT22;9126;48.160;17.130;2022-10-23T15:18:33;14.90;91.90
18002;DHT22;9126;48.160;17.130;2022-10-23T15:21:02;14.80;92.50
18002;DHT22;9126;48.160;17.130;2022-10-23T15:23:31;14.90;92.70
18002;DHT22;9126;48.160;17.130;2022-10-23T15:26:01;15.00;92.70
18002;DHT22;9126;48.160;17.130;2022-10-23T15:28:29;15.00;92.60
18002;DHT22;9126;48.160;17.130;2022-10-23T15:30:56;15.00;92.50
18002;DHT22;9126;48.160;17.130;2022-10-23T15:33:23;14.90;92.70
18002;DHT22;9126;48.160;17.130;2022-10-23T15:35:51;14.90;92.80
18002;DHT22;9126;48.160;17.130;2022-10-23T15:38:19;14.80;92.90
18002;DHT22;9126;48.160;17.130;2022-10-23T15:40:48;14.70;93.10
18002;DHT22;9126;48.160;17.130;2022-10-23T15:43:16;14.70;93.30
18002;DHT22;9126;48.160;17.130;2022-10-23T15:45:43;14.80;93.40
18002;DHT22;9126;48.160;17.130;2022-10-23T15:48:10;14.60;93.40
18002;DHT22;9126;48.160;17.130;2022-10-23T15:50:38;14.50;93.80
18002;DHT22;9126;48.160;17.130;2022-10-23T15:53:05;14.50;94.30
18002;DHT22;9126;48.160;17.130;2022-10-23T15:55:32;14.60;94.60
18002;DHT22;9126;48.160;17.130;2022-10-23T15:58:01;14.60;94.50
18002;DHT22;9126;48.160;17.130;2022-10-23T16:00:32;14.70;94.60